sensor_id;sensor_type;location;lat;lon;timestamp;P1;durP1;ratioP1;P2;durP2;ratioP2
3141;SDS011;1581;51.568;6.998;2022-09-09T00:00:18;1.80;;;0.90;;
3141;SDS011;1581;51.568;6.998;2022-09-09T00:02:49;3.03;;;0.80;;
3141;SDS011;1581;51.568;6.998;2022-09-09T00:05:28;2.77;;;1.00;;
3141;SDS011;1581;51.568;6.998;2022-09-09T00:08:12;2.40;;;1.00;;
3141;SDS011;1581;51.568;6.998;2022-09-09T00:10:47;4.20;;;1.60;;
3141;SDS011;1581;51.568;6.998;2022-09-09T00:13:22;5.33;;;1.03;;
3141;SDS011;1581;51.568;6.998;2022-09-09T00:16:02;1.10;;;0.90;;
3141;SDS011;1581;51.568;6.998;2022-09-09T00:18:44;3.27;;;1.17;;
3141;SDS011;1581;51.568;6.998;2022-09-09T00:21:30;3.17;;;1.57;;
3141;SDS011;1581;51.568;6.998;2022-09-09T00:24:08;2.00;;;1.10;;
3141;SDS011;1581;51.568;6.998;2022-09-09T00:26:56;2.57;;;1.30;;
3141;SDS011;1581;51.568;6.998;2022-09-09T00:29:33;4.20;;;1.77;;
3141;SDS011;1581;51.568;6.998;2022-09-09T00:32:11;2.03;;;1.60;;
3141;SDS011;1581;51.568;6.998;2022-09-09T00:34:44;5.57;;;1.33;;
3141;SDS011;1581;51.568;6.998;2022-09-09T00:37:16;2.73;;;1.57;;
3141;SDS011;1581;51.568;6.998;2022-09-09T00:40:01;3.10;;;1.10;;
3141;SDS011;1581;51.568;6.998;2022-09-09T00:42:42;4.63;;;1.23;;
3141;SDS011;1581;51.568;6.998;2022-09-09T00:45:23;5.03;;;1.40;;
3141;SDS011;1581;51.568;6.998;2022-09-09T00:48:17;6.37;;;1.10;;
3141;SDS011;1581;51.568;6.998;2022-09-09T00:50:49;3.30;;;1.20;;
3141;SDS011;1581;51.568;6.998;2022-09-09T00:53:29;2.60;;;1.20;;
3141;SDS011;1581;51.568;6.998;2022-09-09T00:56:09;2.27;;;1.30;;
3141;SDS011;1581;51.568;6.998;2022-09-09T00:58:57;4.80;;;1.30;;
3141;SDS011;1581;51.568;6.998;2022-09-09T01:01:44;2.90;;;0.93;;
3141;SDS011;1581;51.568;6.998;2022-09-09T01:04:12;2.63;;;1.43;;
3141;SDS011;1581;51.568;6.998;2022-09-09T01:06:47;3.50;;;0.97;;
3141;SDS011;1581;51.568;6.998;2022-09-09T01:09:21;4.27;;;1.63;;
3141;SDS011;1581;51.568;6.998;2022-09-09T01:11:55;1.90;;;1.00;;
3141;SDS011;1581;51.568;6.998;2022-09-09T01:14:32;3.43;;;1.10;;
3141;SDS011;1581;51.568;6.998;2022-09-09T01:17:12;1.37;;;1.00;;
3141;SDS011;1581;51.568;6.998;2022-09-09T01:19:57;2.53;;;1.20;;
3141;SDS011;1581;51.568;6.998;2022-09-09T01:22:36;4.33;;;1.10;;
3141;SDS011;1581;51.568;6.998;2022-09-09T01:25:22;4.03;;;0.90;;
3141;SDS011;1581;51.568;6.998;2022-09-09T01:28:00;3.43;;;1.47;;
3141;SDS011;1581;51.568;6.998;2022-09-09T01:30:31;2.67;;;1.50;;
3141;SDS011;1581;51.568;6.998;2022-09-09T01:33:01;3.00;;;1.40;;
3141;SDS011;1581;51.568;6.998;2022-09-09T01:35:33;5.23;;;1.70;;
3141;SDS011;1581;51.568;6.998;2022-09-09T01:38:09;7.77;;;2.03;;
3141;SDS011;1581;51.568;6.998;2022-09-09T01:40:37;1.73;;;1.30;;
3141;SDS011;1581;51.568;6.998;2022-09-09T01:43:06;6.53;;;1.37;;
3141;SDS011;1581;51.568;6.998;2022-09-09T01:45:34;7.53;;;1.40;;
3141;SDS011;1581;51.568;6.998;2022-09-09T01:48:02;4.23;;;1.40;;
3141;SDS011;1581;51.568;6.998;2022-09-09T01:50:30;1.17;;;1.07;;
3141;SDS011;1581;51.568;6.998;2022-09-09T01:52:58;8.43;;;1.60;;
3141;SDS011;1581;51.568;6.998;2022-09-09T01:55:28;3.43;;;1.37;;
3141;SDS011;1581;51.568;6.998;2022-09-09T01:58:09;7.67;;;1.43;;
3141;SDS011;1581;51.568;6.998;2022-09-09T02:00:49;3.73;;;1.27;;
3141;SDS011;1581;51.568;6.998;2022-09-09T02:03:27;4.70;;;1.87;;
3141;SDS011;1581;51.568;6.998;2022-09-09T02:05:58;2.23;;;1.10;;
3141;SDS011;1581;51.568;6.998;2022-09-09T02:08:40;1.23;;;1.13;;
3141;SDS011;1581;51.568;6.998;2022-09-09T02:11:13;4.90;;;1.10;;
3141;SDS011;1581;51.568;6.998;2022-09-09T02:13:44;3.40;;;1.23;;
3141;SDS011;1581;51.568;6.998;2022-09-09T02:16:16;2.50;;;1.17;;
3141;SDS011;1581;51.568;6.998;2022-09-09T02:18:50;4.23;;;1.27;;
3141;SDS011;1581;51.568;6.998;2022-09-09T02:21:22;9.80;;;1.40;;
3141;SDS011;1581;51.568;6.998;2022-09-09T02:23:51;4.80;;;1.60;;
3141;SDS011;1581;51.568;6.998;2022-09-09T02:26:21;1.10;;;1.00;;
3141;SDS011;1581;51.568;6.998;2022-09-09T02:28:52;3.13;;;1.53;;
3141;SDS011;1581;51.568;6.998;2022-09-09T02:31:24;2.17;;;1.17;;
3141;SDS011;1581;51.568;6.998;2022-09-09T02:33:52;7.77;;;1.60;;
3141;SDS011;1581;51.568;6.998;2022-09-09T02:36:24;1.60;;;1.10;;
3141;SDS011;1581;51.568;6.998;2022-09-09T02:38:55;3.70;;;1.27;;
3141;SDS011;1581;51.568;6.998;2022-09-09T02:41:24;4.90;;;1.50;;
3141;SDS011;1581;51.568;6.998;2022-09-09T02:43:58;3.07;;;1.30;;
3141;SDS011;1581;51.568;6.998;2022-09-09T02:46:32;2.47;;;1.50;;
3141;SDS011;1581;51.568;6.998;2022-09-09T02:49:15;3.63;;;1.40;;
3141;SDS011;1581;51.568;6.998;2022-09-09T02:51:51;2.83;;;1.57;;
3141;SDS011;1581;51.568;6.998;2022-09-09T02:54:27;2.03;;;1.33;;
3141;SDS011;1581;51.568;6.998;2022-09-09T02:56:58;2.60;;;1.50;;
3141;SDS011;1581;51.568;6.998;2022-09-09T02:59:34;4.40;;;1.43;;
3141;SDS011;1581;51.568;6.998;2022-09-09T03:02:01;2.00;;;1.37;;
3141;SDS011;1581;51.568;6.998;2022-09-09T03:04:29;4.57;;;1.87;;
3141;SDS011;1581;51.568;6.998;2022-09-09T03:06:57;3.87;;;1.20;;
3141;SDS011;1581;51.568;6.998;2022-09-09T03:09:25;6.30;;;1.97;;
3141;SDS011;1581;51.568;6.998;2022-09-09T03:11:53;2.63;;;1.43;;
3141;SDS011;1581;51.568;6.998;2022-09-09T03:14:21;2.93;;;1.60;;
3141;SDS011;1581;51.568;6.998;2022-09-09T03:16:51;5.00;;;1.50;;
3141;SDS011;1581;51.568;6.998;2022-09-09T03:19:19;2.27;;;1.47;;
3141;SDS011;1581;51.568;6.998;2022-09-09T03:21:47;2.37;;;1.40;;
3141;SDS011;1581;51.568;6.998;2022-09-09T03:24:15;5.23;;;1.50;;
3141;SDS011;1581;51.568;6.998;2022-09-09T03:26:42;8.63;;;1.57;;
3141;SDS011;1581;51.568;6.998;2022-09-09T03:29:10;2.17;;;1.50;;
3141;SDS011;1581;51.568;6.998;2022-09-09T03:31:40;3.57;;;1.20;;
3141;SDS011;1581;51.568;6.998;2022-09-09T03:34:09;2.97;;;1.43;;
3141;SDS011;1581;51.568;6.998;2022-09-09T03:36:36;2.50;;;1.20;;
3141;SDS011;1581;51.568;6.998;2022-09-09T03:39:04;3.27;;;1.07;;
3141;SDS011;1581;51.568;6.998;2022-09-09T03:41:31;3.17;;;1.00;;
3141;SDS011;1581;51.568;6.998;2022-09-09T03:43:59;4.60;;;1.50;;
3141;SDS011;1581;51.568;6.998;2022-09-09T03:46:27;2.50;;;1.67;;
3141;SDS011;1581;51.568;6.998;2022-09-09T03:48:54;3.63;;;1.30;;
3141;SDS011;1581;51.568;6.998;2022-09-09T03:51:23;5.13;;;1.30;;
3141;SDS011;1581;51.568;6.998;2022-09-09T03:53:51;4.90;;;1.50;;
3141;SDS011;1581;51.568;6.998;2022-09-09T03:56:23;6.50;;;1.40;;
3141;SDS011;1581;51.568;6.998;2022-09-09T03:58:50;7.37;;;1.90;;
3141;SDS011;1581;51.568;6.998;2022-09-09T04:01:18;8.00;;;2.13;;
3141;SDS011;1581;51.568;6.998;2022-09-09T04:03:46;4.63;;;1.33;;
3141;SDS011;1581;51.568;6.998;2022-09-09T04:06:13;3.47;;;1.53;;
3141;SDS011;1581;51.568;6.998;2022-09-09T04:08:44;4.63;;;1.37;;
3141;SDS011;1581;51.568;6.998;2022-09-09T04:11:13;1.90;;;1.53;;
3141;SDS011;1581;51.568;6.998;2022-09-09T04:13:41;3.77;;;1.33;;
3141;SDS011;1581;51.568;6.998;2022-09-09T04:16:10;6.00;;;1.67;;
3141;SDS011;1581;51.568;6.998;2022-09-09T04:18:38;4.57;;;2.23;;
3141;SDS011;1581;51.568;6.998;2022-09-09T04:21:08;3.43;;;1.87;;
3141;SDS011;1581;51.568;6.998;2022-09-09T04:23:45;3.60;;;2.07;;
3141;SDS011;1581;51.568;6.998;2022-09-09T04:26:21;7.13;;;2.23;;
3141;SDS011;1581;51.568;6.998;2022-09-09T04:28:52;17.47;;;2.03;;
3141;SDS011;1581;51.568;6.998;2022-09-09T04:31:30;6.30;;;1.63;;
3141;SDS011;1581;51.568;6.998;2022-09-09T04:33:58;3.00;;;1.27;;
3141;SDS011;1581;51.568;6.998;2022-09-09T04:36:30;5.60;;;1.70;;
3141;SDS011;1581;51.568;6.998;2022-09-09T04:39:11;9.23;;;2.20;;
3141;SDS011;1581;51.568;6.998;2022-09-09T04:41:39;10.13;;;2.10;;
3141;SDS011;1581;51.568;6.998;2022-09-09T04:44:16;3.80;;;1.87;;
3141;SDS011;1581;51.568;6.998;2022-09-09T04:46:43;13.90;;;2.33;;
3141;SDS011;1581;51.568;6.998;2022-09-09T04:49:11;9.73;;;6.57;;
3141;SDS011;1581;51.568;6.998;2022-09-09T04:51:39;14.70;;;8.90;;
3141;SDS011;1581;51.568;6.998;2022-09-09T04:54:24;28.10;;;15.23;;
3141;SDS011;1581;51.568;6.998;2022-09-09T04:56:52;29.07;;;19.03;;
3141;SDS011;1581;51.568;6.998;2022-09-09T04:59:27;33.77;;;22.47;;
3141;SDS011;1581;51.568;6.998;2022-09-09T05:02:04;34.80;;;22.10;;
3141;SDS011;1581;51.568;6.998;2022-09-09T05:04:31;43.77;;;21.27;;
3141;SDS011;1581;51.568;6.998;2022-09-09T05:06:59;37.93;;;21.20;;
3141;SDS011;1581;51.568;6.998;2022-09-09T05:09:28;34.30;;;20.97;;
3141;SDS011;1581;51.568;6.998;2022-09-09T05:11:56;29.77;;;20.87;;
3141;SDS011;1581;51.568;6.998;2022-09-09T05:14:29;34.20;;;21.10;;
3141;SDS011;1581;51.568;6.998;2022-09-09T05:16:57;33.23;;;18.93;;
3141;SDS011;1581;51.568;6.998;2022-09-09T05:19:24;32.67;;;19.53;;
3141;SDS011;1581;51.568;6.998;2022-09-09T05:21:58;30.00;;;18.30;;
3141;SDS011;1581;51.568;6.998;2022-09-09T05:24:27;27.87;;;16.37;;
3141;SDS011;1581;51.568;6.998;2022-09-09T05:26:58;35.23;;;17.67;;
3141;SDS011;1581;51.568;6.998;2022-09-09T05:29:27;22.60;;;13.20;;
3141;SDS011;1581;51.568;6.998;2022-09-09T05:32:02;20.93;;;13.67;;
3141;SDS011;1581;51.568;6.998;2022-09-09T05:37:14;14.97;;;7.73;;
3141;SDS011;1581;51.568;6.998;2022-09-09T05:39:50;17.67;;;7.43;;
3141;SDS011;1581;51.568;6.998;2022-09-09T05:42:29;13.50;;;6.33;;
3141;SDS011;1581;51.568;6.998;2022-09-09T05:44:57;10.93;;;5.90;;
3141;SDS011;1581;51.568;6.998;2022-09-09T05:47:29;7.10;;;5.20;;
3141;SDS011;1581;51.568;6.998;2022-09-09T05:49:59;8.47;;;5.23;;
3141;SDS011;1581;51.568;6.998;2022-09-09T05:52:32;12.23;;;4.50;;
3141;SDS011;1581;51.568;6.998;2022-09-09T05:55:03;11.60;;;4.67;;
3141;SDS011;1581;51.568;6.998;2022-09-09T05:57:32;11.17;;;5.10;;
3141;SDS011;1581;51.568;6.998;2022-09-09T06:00:13;9.90;;;5.13;;
3141;SDS011;1581;51.568;6.998;2022-09-09T06:02:50;11.40;;;5.30;;
3141;SDS011;1581;51.568;6.998;2022-09-09T06:05:18;10.13;;;4.37;;
3141;SDS011;1581;51.568;6.998;2022-09-09T06:07:47;7.27;;;4.53;;
3141;SDS011;1581;51.568;6.998;2022-09-09T06:10:20;9.93;;;3.60;;
3141;SDS011;1581;51.568;6.998;2022-09-09T06:12:48;18.50;;;3.90;;
3141;SDS011;1581;51.568;6.998;2022-09-09T06:15:23;8.27;;;3.60;;
3141;SDS011;1581;51.568;6.998;2022-09-09T06:17:54;12.93;;;3.60;;
3141;SDS011;1581;51.568;6.998;2022-09-09T06:20:41;10.40;;;3.40;;
3141;SDS011;1581;51.568;6.998;2022-09-09T06:23:20;11.33;;;3.33;;
3141;SDS011;1581;51.568;6.998;2022-09-09T06:25:51;6.00;;;2.53;;
3141;SDS011;1581;51.568;6.998;2022-09-09T06:28:29;10.40;;;2.60;;
3141;SDS011;1581;51.568;6.998;2022-09-09T06:30:57;7.13;;;2.83;;
3141;SDS011;1581;51.568;6.998;2022-09-09T06:33:30;5.93;;;2.43;;
3141;SDS011;1581;51.568;6.998;2022-09-09T06:36:11;6.33;;;2.57;;
3141;SDS011;1581;51.568;6.998;2022-09-09T06:38:43;6.80;;;1.77;;
3141;SDS011;1581;51.568;6.998;2022-09-09T06:41:22;5.93;;;1.57;;
3141;SDS011;1581;51.568;6.998;2022-09-09T06:43:52;3.33;;;1.70;;
3141;SDS011;1581;51.568;6.998;2022-09-09T06:46:21;8.83;;;2.07;;
3141;SDS011;1581;51.568;6.998;2022-09-09T06:48:53;4.93;;;1.40;;
3141;SDS011;1581;51.568;6.998;2022-09-09T06:51:25;4.33;;;1.80;;
3141;SDS011;1581;51.568;6.998;2022-09-09T06:53:54;8.27;;;3.00;;
3141;SDS011;1581;51.568;6.998;2022-09-09T06:56:26;5.73;;;2.03;;
3141;SDS011;1581;51.568;6.998;2022-09-09T06:58:56;4.87;;;1.90;;
3141;SDS011;1581;51.568;6.998;2022-09-09T07:01:26;7.10;;;1.33;;
3141;SDS011;1581;51.568;6.998;2022-09-09T07:03:58;9.03;;;2.23;;
3141;SDS011;1581;51.568;6.998;2022-09-09T07:06:29;4.20;;;1.43;;
3141;SDS011;1581;51.568;6.998;2022-09-09T07:09:00;9.10;;;2.03;;
3141;SDS011;1581;51.568;6.998;2022-09-09T07:11:36;4.37;;;1.70;;
3141;SDS011;1581;51.568;6.998;2022-09-09T07:14:09;3.80;;;1.50;;
3141;SDS011;1581;51.568;6.998;2022-09-09T07:16:41;4.43;;;1.40;;
3141;SDS011;1581;51.568;6.998;2022-09-09T07:19:09;8.90;;;1.93;;
3141;SDS011;1581;51.568;6.998;2022-09-09T07:21:47;8.67;;;1.90;;
3141;SDS011;1581;51.568;6.998;2022-09-09T07:24:15;5.47;;;2.10;;
3141;SDS011;1581;51.568;6.998;2022-09-09T07:26:47;5.83;;;1.30;;
3141;SDS011;1581;51.568;6.998;2022-09-09T07:29:14;7.20;;;1.83;;
3141;SDS011;1581;51.568;6.998;2022-09-09T07:31:49;8.85;;;1.63;;
3141;SDS011;1581;51.568;6.998;2022-09-09T07:34:17;3.43;;;1.33;;
3141;SDS011;1581;51.568;6.998;2022-09-09T07:36:44;19.93;;;2.33;;
3141;SDS011;1581;51.568;6.998;2022-09-09T07:39:12;6.90;;;1.70;;
3141;SDS011;1581;51.568;6.998;2022-09-09T07:41:43;38.08;;;2.45;;
3141;SDS011;1581;51.568;6.998;2022-09-09T07:44:14;12.73;;;1.70;;
3141;SDS011;1581;51.568;6.998;2022-09-09T07:46:44;12.68;;;1.67;;
3141;SDS011;1581;51.568;6.998;2022-09-09T07:49:22;8.43;;;1.77;;
3141;SDS011;1581;51.568;6.998;2022-09-09T07:51:50;4.18;;;1.23;;
3141;SDS011;1581;51.568;6.998;2022-09-09T07:54:18;5.40;;;1.10;;
3141;SDS011;1581;51.568;6.998;2022-09-09T07:56:48;5.80;;;1.85;;
3141;SDS011;1581;51.568;6.998;2022-09-09T07:59:18;4.57;;;1.00;;
3141;SDS011;1581;51.568;6.998;2022-09-09T08:01:47;5.57;;;1.27;;
3141;SDS011;1581;51.568;6.998;2022-09-09T08:04:21;9.73;;;1.80;;
3141;SDS011;1581;51.568;6.998;2022-09-09T08:06:51;10.77;;;1.40;;
3141;SDS011;1581;51.568;6.998;2022-09-09T08:09:20;9.50;;;1.40;;
3141;SDS011;1581;51.568;6.998;2022-09-09T08:11:50;8.30;;;1.13;;
3141;SDS011;1581;51.568;6.998;2022-09-09T08:14:19;5.57;;;1.42;;
3141;SDS011;1581;51.568;6.998;2022-09-09T08:16:49;3.23;;;1.20;;
3141;SDS011;1581;51.568;6.998;2022-09-09T08:19:18;5.20;;;1.73;;
3141;SDS011;1581;51.568;6.998;2022-09-09T08:21:45;10.07;;;1.60;;
3141;SDS011;1581;51.568;6.998;2022-09-09T08:24:14;3.87;;;1.50;;
3141;SDS011;1581;51.568;6.998;2022-09-09T08:26:42;5.80;;;1.23;;
3141;SDS011;1581;51.568;6.998;2022-09-09T08:29:12;2.30;;;1.20;;
3141;SDS011;1581;51.568;6.998;2022-09-09T08:31:43;5.87;;;1.70;;
3141;SDS011;1581;51.568;6.998;2022-09-09T08:34:13;1.67;;;0.90;;
3141;SDS011;1581;51.568;6.998;2022-09-09T08:36:42;3.90;;;1.10;;
3141;SDS011;1581;51.568;6.998;2022-09-09T08:39:11;5.50;;;1.10;;
3141;SDS011;1581;51.568;6.998;2022-09-09T08:45:02;5.47;;;1.53;;
3141;SDS011;1581;51.568;6.998;2022-09-09T08:50:48;8.63;;;1.30;;
3141;SDS011;1581;51.568;6.998;2022-09-09T08:53:18;7.30;;;1.50;;
3141;SDS011;1581;51.568;6.998;2022-09-09T08:55:51;6.82;;;1.63;;
3141;SDS011;1581;51.568;6.998;2022-09-09T08:58:21;3.42;;;1.17;;
3141;SDS011;1581;51.568;6.998;2022-09-09T09:00:57;2.90;;;0.80;;
3141;SDS011;1581;51.568;6.998;2022-09-09T09:03:43;4.40;;;1.20;;
3141;SDS011;1581;51.568;6.998;2022-09-09T09:06:25;9.10;;;1.02;;
3141;SDS011;1581;51.568;6.998;2022-09-09T09:09:08;5.95;;;1.27;;
3141;SDS011;1581;51.568;6.998;2022-09-09T09:11:45;3.42;;;1.50;;
3141;SDS011;1581;51.568;6.998;2022-09-09T09:14:17;7.40;;;1.23;;
3141;SDS011;1581;51.568;6.998;2022-09-09T09:16:49;2.70;;;0.90;;
3141;SDS011;1581;51.568;6.998;2022-09-09T09:19:24;5.15;;;1.02;;
3141;SDS011;1581;51.568;6.998;2022-09-09T09:21:54;3.63;;;1.02;;
3141;SDS011;1581;51.568;6.998;2022-09-09T09:24:34;3.65;;;1.13;;
3141;SDS011;1581;51.568;6.998;2022-09-09T09:27:12;2.42;;;0.85;;
3141;SDS011;1581;51.568;6.998;2022-09-09T09:29:41;7.85;;;1.13;;
3141;SDS011;1581;51.568;6.998;2022-09-09T09:32:11;2.70;;;1.02;;
3141;SDS011;1581;51.568;6.998;2022-09-09T09:34:49;1.88;;;1.00;;
3141;SDS011;1581;51.568;6.998;2022-09-09T09:37:20;5.50;;;1.60;;
3141;SDS011;1581;51.568;6.998;2022-09-09T09:39:53;8.48;;;1.15;;
3141;SDS011;1581;51.568;6.998;2022-09-09T09:42:20;3.17;;;1.10;;
3141;SDS011;1581;51.568;6.998;2022-09-09T09:44:48;2.28;;;0.80;;
3141;SDS011;1581;51.568;6.998;2022-09-09T09:47:17;2.38;;;1.33;;
3141;SDS011;1581;51.568;6.998;2022-09-09T09:49:53;4.22;;;1.60;;
3141;SDS011;1581;51.568;6.998;2022-09-09T09:52:22;3.95;;;1.70;;
3141;SDS011;1581;51.568;6.998;2022-09-09T09:54:51;2.53;;;1.08;;
3141;SDS011;1581;51.568;6.998;2022-09-09T09:57:22;3.47;;;1.15;;
3141;SDS011;1581;51.568;6.998;2022-09-09T10:00:00;3.65;;;1.48;;
3141;SDS011;1581;51.568;6.998;2022-09-09T10:02:37;2.97;;;1.20;;
3141;SDS011;1581;51.568;6.998;2022-09-09T10:05:14;1.95;;;1.20;;
3141;SDS011;1581;51.568;6.998;2022-09-09T10:07:45;4.15;;;1.27;;
3141;SDS011;1581;51.568;6.998;2022-09-09T10:10:15;3.65;;;1.17;;
3141;SDS011;1581;51.568;6.998;2022-09-09T10:12:50;3.00;;;1.20;;
3141;SDS011;1581;51.568;6.998;2022-09-09T10:15:30;3.60;;;1.15;;
3141;SDS011;1581;51.568;6.998;2022-09-09T10:18:12;5.45;;;1.42;;
3141;SDS011;1581;51.568;6.998;2022-09-09T10:21:06;1.02;;;0.73;;
3141;SDS011;1581;51.568;6.998;2022-09-09T10:24:04;8.60;;;1.05;;
3141;SDS011;1581;51.568;6.998;2022-09-09T10:26:51;12.27;;;1.35;;
3141;SDS011;1581;51.568;6.998;2022-09-09T10:29:30;7.47;;;1.50;;
3141;SDS011;1581;51.568;6.998;2022-09-09T10:32:21;2.75;;;1.20;;
3141;SDS011;1581;51.568;6.998;2022-09-09T10:35:04;6.95;;;1.08;;
3141;SDS011;1581;51.568;6.998;2022-09-09T10:37:58;6.75;;;0.98;;
3141;SDS011;1581;51.568;6.998;2022-09-09T10:40:43;3.22;;;1.08;;
3141;SDS011;1581;51.568;6.998;2022-09-09T10:43:51;1.35;;;0.70;;
3141;SDS011;1581;51.568;6.998;2022-09-09T10:46:38;1.35;;;0.70;;
3141;SDS011;1581;51.568;6.998;2022-09-09T10:50:03;6.07;;;1.17;;
3141;SDS011;1581;51.568;6.998;2022-09-09T10:52:53;3.35;;;2.00;;
3141;SDS011;1581;51.568;6.998;2022-09-09T10:55:33;3.28;;;0.90;;
3141;SDS011;1581;51.568;6.998;2022-09-09T10:58:09;1.40;;;0.82;;
3141;SDS011;1581;51.568;6.998;2022-09-09T11:00:44;1.80;;;1.00;;
3141;SDS011;1581;51.568;6.998;2022-09-09T11:03:15;1.83;;;0.73;;
3141;SDS011;1581;51.568;6.998;2022-09-09T11:05:49;0.60;;;0.60;;
3141;SDS011;1581;51.568;6.998;2022-09-09T11:08:24;5.78;;;1.48;;
3141;SDS011;1581;51.568;6.998;2022-09-09T11:10:57;2.95;;;1.25;;
3141;SDS011;1581;51.568;6.998;2022-09-09T11:13:31;1.10;;;0.88;;
3141;SDS011;1581;51.568;6.998;2022-09-09T11:16:14;3.83;;;0.80;;
3141;SDS011;1581;51.568;6.998;2022-09-09T11:18:50;4.93;;;0.85;;
3141;SDS011;1581;51.568;6.998;2022-09-09T11:21:27;3.63;;;0.93;;
3141;SDS011;1581;51.568;6.998;2022-09-09T11:24:03;2.72;;;0.95;;
3141;SDS011;1581;51.568;6.998;2022-09-09T11:26:37;1.73;;;0.60;;
3141;SDS011;1581;51.568;6.998;2022-09-09T11:32:21;2.38;;;0.90;;
3141;SDS011;1581;51.568;6.998;2022-09-09T11:35:31;2.58;;;0.80;;
3141;SDS011;1581;51.568;6.998;2022-09-09T11:38:18;1.20;;;0.75;;
3141;SDS011;1581;51.568;6.998;2022-09-09T11:40:59;3.72;;;0.98;;
3141;SDS011;1581;51.568;6.998;2022-09-09T11:43:32;2.28;;;0.90;;
3141;SDS011;1581;51.568;6.998;2022-09-09T11:46:07;2.97;;;0.70;;
3141;SDS011;1581;51.568;6.998;2022-09-09T11:48:37;9.27;;;1.20;;
3141;SDS011;1581;51.568;6.998;2022-09-09T11:51:09;2.28;;;1.45;;
3141;SDS011;1581;51.568;6.998;2022-09-09T11:53:48;3.67;;;0.90;;
3141;SDS011;1581;51.568;6.998;2022-09-09T11:56:26;3.63;;;1.10;;
3141;SDS011;1581;51.568;6.998;2022-09-09T11:58:57;3.03;;;0.90;;
3141;SDS011;1581;51.568;6.998;2022-09-09T12:01:34;6.85;;;1.27;;
3141;SDS011;1581;51.568;6.998;2022-09-09T12:07:05;2.53;;;1.35;;
3141;SDS011;1581;51.568;6.998;2022-09-09T12:09:58;8.73;;;1.02;;
3141;SDS011;1581;51.568;6.998;2022-09-09T12:12:34;2.63;;;0.88;;
3141;SDS011;1581;51.568;6.998;2022-09-09T12:15:17;5.38;;;0.90;;
3141;SDS011;1581;51.568;6.998;2022-09-09T12:17:51;1.85;;;0.80;;
3141;SDS011;1581;51.568;6.998;2022-09-09T12:20:21;1.02;;;1.02;;
3141;SDS011;1581;51.568;6.998;2022-09-09T12:23:05;2.40;;;1.10;;
3141;SDS011;1581;51.568;6.998;2022-09-09T12:29:04;1.00;;;0.75;;
3141;SDS011;1581;51.568;6.998;2022-09-09T12:31:46;1.35;;;0.90;;
3141;SDS011;1581;51.568;6.998;2022-09-09T12:34:24;1.58;;;0.70;;
3141;SDS011;1581;51.568;6.998;2022-09-09T12:37:08;3.10;;;0.98;;
3141;SDS011;1581;51.568;6.998;2022-09-09T12:39:45;3.10;;;1.05;;
3141;SDS011;1581;51.568;6.998;2022-09-09T12:42:28;1.23;;;0.70;;
3141;SDS011;1581;51.568;6.998;2022-09-09T12:45:00;2.38;;;0.80;;
3141;SDS011;1581;51.568;6.998;2022-09-09T12:47:35;1.67;;;0.60;;
3141;SDS011;1581;51.568;6.998;2022-09-09T12:50:14;4.63;;;1.23;;
3141;SDS011;1581;51.568;6.998;2022-09-09T12:52:46;2.22;;;0.50;;
3141;SDS011;1581;51.568;6.998;2022-09-09T12:55:17;3.75;;;1.27;;
3141;SDS011;1581;51.568;6.998;2022-09-09T12:57:50;5.82;;;0.95;;
3141;SDS011;1581;51.568;6.998;2022-09-09T13:00:20;2.05;;;0.80;;
3141;SDS011;1581;51.568;6.998;2022-09-09T13:02:52;4.00;;;1.40;;
3141;SDS011;1581;51.568;6.998;2022-09-09T13:05:22;1.35;;;1.05;;
3141;SDS011;1581;51.568;6.998;2022-09-09T13:08:00;8.07;;;1.42;;
3141;SDS011;1581;51.568;6.998;2022-09-09T13:10:28;1.92;;;1.10;;
3141;SDS011;1581;51.568;6.998;2022-09-09T13:13:03;5.10;;;0.80;;
3141;SDS011;1581;51.568;6.998;2022-09-09T13:15:47;2.92;;;0.82;;
3141;SDS011;1581;51.568;6.998;2022-09-09T13:18:18;9.45;;;1.50;;
3141;SDS011;1581;51.568;6.998;2022-09-09T13:20:53;2.97;;;1.00;;
3141;SDS011;1581;51.568;6.998;2022-09-09T13:23:24;1.85;;;1.13;;
3141;SDS011;1581;51.568;6.998;2022-09-09T13:25:56;3.63;;;1.08;;
3141;SDS011;1581;51.568;6.998;2022-09-09T13:28:26;5.72;;;0.68;;
3141;SDS011;1581;51.568;6.998;2022-09-09T13:30:58;1.95;;;0.88;;
3141;SDS011;1581;51.568;6.998;2022-09-09T13:33:33;4.03;;;1.45;;
3141;SDS011;1581;51.568;6.998;2022-09-09T13:36:03;1.50;;;0.90;;
3141;SDS011;1581;51.568;6.998;2022-09-09T13:38:35;4.00;;;0.70;;
3141;SDS011;1581;51.568;6.998;2022-09-09T13:41:23;0.93;;;0.73;;
3141;SDS011;1581;51.568;6.998;2022-09-09T13:43:56;2.90;;;0.75;;
3141;SDS011;1581;51.568;6.998;2022-09-09T13:46:27;7.05;;;1.20;;
3141;SDS011;1581;51.568;6.998;2022-09-09T13:49:00;5.97;;;1.23;;
3141;SDS011;1581;51.568;6.998;2022-09-09T13:51:44;1.02;;;0.73;;
3141;SDS011;1581;51.568;6.998;2022-09-09T13:54:16;7.22;;;1.20;;
3141;SDS011;1581;51.568;6.998;2022-09-09T13:56:46;1.67;;;0.95;;
3141;SDS011;1581;51.568;6.998;2022-09-09T13:59:15;3.90;;;0.95;;
3141;SDS011;1581;51.568;6.998;2022-09-09T14:01:46;2.70;;;1.50;;
3141;SDS011;1581;51.568;6.998;2022-09-09T14:04:17;3.78;;;1.00;;
3141;SDS011;1581;51.568;6.998;2022-09-09T14:06:46;2.30;;;1.02;;
3141;SDS011;1581;51.568;6.998;2022-09-09T14:09:16;1.60;;;1.05;;
3141;SDS011;1581;51.568;6.998;2022-09-09T14:11:45;1.77;;;1.08;;
3141;SDS011;1581;51.568;6.998;2022-09-09T14:14:13;3.40;;;1.17;;
3141;SDS011;1581;51.568;6.998;2022-09-09T14:16:42;2.20;;;1.40;;
3141;SDS011;1581;51.568;6.998;2022-09-09T14:19:12;2.88;;;1.10;;
3141;SDS011;1581;51.568;6.998;2022-09-09T14:21:43;4.72;;;1.30;;
3141;SDS011;1581;51.568;6.998;2022-09-09T14:24:10;3.95;;;1.52;;
3141;SDS011;1581;51.568;6.998;2022-09-09T14:26:39;3.95;;;1.33;;
3141;SDS011;1581;51.568;6.998;2022-09-09T14:29:07;5.85;;;1.67;;
3141;SDS011;1581;51.568;6.998;2022-09-09T14:31:34;3.38;;;1.55;;
3141;SDS011;1581;51.568;6.998;2022-09-09T14:34:02;1.75;;;0.88;;
3141;SDS011;1581;51.568;6.998;2022-09-09T14:36:32;3.33;;;1.25;;
3141;SDS011;1581;51.568;6.998;2022-09-09T14:38:59;2.55;;;1.10;;
3141;SDS011;1581;51.568;6.998;2022-09-09T14:41:27;3.13;;;0.82;;
3141;SDS011;1581;51.568;6.998;2022-09-09T14:43:54;2.90;;;1.00;;
3141;SDS011;1581;51.568;6.998;2022-09-09T14:46:22;2.53;;;0.88;;
3141;SDS011;1581;51.568;6.998;2022-09-09T14:48:50;2.50;;;1.30;;
3141;SDS011;1581;51.568;6.998;2022-09-09T14:51:18;2.25;;;0.77;;
3141;SDS011;1581;51.568;6.998;2022-09-09T14:53:50;3.28;;;1.00;;
3141;SDS011;1581;51.568;6.998;2022-09-09T14:56:20;3.00;;;1.00;;
3141;SDS011;1581;51.568;6.998;2022-09-09T14:58:50;5.07;;;1.15;;
3141;SDS011;1581;51.568;6.998;2022-09-09T15:01:20;2.92;;;1.20;;
3141;SDS011;1581;51.568;6.998;2022-09-09T15:03:49;2.90;;;1.10;;
3141;SDS011;1581;51.568;6.998;2022-09-09T15:06:18;5.43;;;1.27;;
3141;SDS011;1581;51.568;6.998;2022-09-09T15:08:50;7.47;;;1.88;;
3141;SDS011;1581;51.568;6.998;2022-09-09T15:11:20;4.38;;;1.55;;
3141;SDS011;1581;51.568;6.998;2022-09-09T15:13:50;3.17;;;0.90;;
3141;SDS011;1581;51.568;6.998;2022-09-09T15:16:20;2.97;;;1.15;;
3141;SDS011;1581;51.568;6.998;2022-09-09T15:18:52;5.60;;;1.27;;
3141;SDS011;1581;51.568;6.998;2022-09-09T15:21:22;1.88;;;1.63;;
3141;SDS011;1581;51.568;6.998;2022-09-09T15:23:53;1.13;;;0.67;;
3141;SDS011;1581;51.568;6.998;2022-09-09T15:26:21;4.20;;;1.02;;
3141;SDS011;1581;51.568;6.998;2022-09-09T15:28:49;4.22;;;0.80;;
3141;SDS011;1581;51.568;6.998;2022-09-09T15:31:17;3.93;;;1.00;;
3141;SDS011;1581;51.568;6.998;2022-09-09T15:34:03;2.90;;;0.83;;
3141;SDS011;1581;51.568;6.998;2022-09-09T15:36:33;0.90;;;0.90;;
3141;SDS011;1581;51.568;6.998;2022-09-09T15:39:04;2.30;;;1.20;;
3141;SDS011;1581;51.568;6.998;2022-09-09T15:41:35;5.90;;;1.00;;
3141;SDS011;1581;51.568;6.998;2022-09-09T15:44:02;3.60;;;0.70;;
3141;SDS011;1581;51.568;6.998;2022-09-09T15:46:32;5.93;;;1.17;;
3141;SDS011;1581;51.568;6.998;2022-09-09T15:49:03;1.90;;;0.60;;
3141;SDS011;1581;51.568;6.998;2022-09-09T15:51:35;1.83;;;0.70;;
3141;SDS011;1581;51.568;6.998;2022-09-09T15:54:06;1.80;;;0.75;;
3141;SDS011;1581;51.568;6.998;2022-09-09T15:56:34;2.38;;;1.02;;
3141;SDS011;1581;51.568;6.998;2022-09-09T15:59:02;4.97;;;1.02;;
3141;SDS011;1581;51.568;6.998;2022-09-09T16:01:30;1.83;;;1.15;;
3141;SDS011;1581;51.568;6.998;2022-09-09T16:03:59;2.97;;;1.47;;
3141;SDS011;1581;51.568;6.998;2022-09-09T16:06:27;4.50;;;1.50;;
3141;SDS011;1581;51.568;6.998;2022-09-09T16:08:56;3.10;;;1.33;;